Time;durP1;ratioP1;P1;durP2;ratioP2;P2;SDS_P1;SDS_P2;PMS_P1;PMS_P2;Temp;Humidity;BMP_temperature;BMP_pressure;BME280_temperature;BME280_humidity;BME280_pressure;Samples;Min_cycle;Max_cycle;Signal;HPM_P1;HPM_P2
2024/01/26 00:01:18;;;;;;;38.87;29.20;;;;;;;5.64;100.00;102143.91;4933790;29;20444;-36
2024/01/26 00:03:48;;;;;;;37.30;31.50;;;;;;;5.61;100.00;102141.53;4933331;29;20428;-36
2024/01/26 00:06:16;;;;;;;34.23;29.57;;;;;;;5.56;100.00;102135.75;4933655;28;20881;-36
2024/01/26 00:08:44;;;;;;;33.87;29.13;;;;;;;5.50;100.00;102134.47;4932990;29;20468;-36
2024/01/26 00:11:15;;;;;;;33.83;29.60;;;;;;;5.44;100.00;102134.16;4935552;29;20433;-36
2024/01/26 00:13:43;;;;;;;36.13;31.23;;;;;;;5.34;100.00;102131.47;4933753;29;20692;-36
2024/01/26 00:16:10;;;;;;;36.67;30.20;;;;;;;5.30;100.00;102129.19;4932922;28;20544;-36
2024/01/26 00:18:39;;;;;;;44.63;31.33;;;;;;;5.25;100.00;102128.75;4937117;29;20484;-36
2024/01/26 00:21:09;;;;;;;32.17;28.50;;;;;;;5.20;100.00;102128.25;4932312;29;20451;-36
2024/01/26 00:23:35;;;;;;;40.57;29.13;;;;;;;5.18;100.00;102128.41;4933853;29;20527;-36
2024/01/26 00:26:03;;;;;;;30.57;27.47;;;;;;;5.17;100.00;102134.66;4932868;28;20539;-37
2024/01/26 00:28:31;;;;;;;33.20;29.53;;;;;;;5.17;100.00;102134.66;4932409;29;21179;-36
2024/01/26 00:30:59;;;;;;;31.50;28.20;;;;;;;5.19;100.00;102142.47;4933322;29;20439;-37
2024/01/26 00:33:27;;;;;;;39.10;30.23;;;;;;;5.24;100.00;102132.34;4934824;29;20441;-36
2024/01/26 00:35:55;;;;;;;36.40;27.63;;;;;;;5.26;100.00;102133.88;4933061;28;20484;-36
2024/01/26 00:38:24;;;;;;;31.77;28.53;;;;;;;5.28;100.00;102112.63;4933099;29;20508;-36
2024/01/26 00:40:52;;;;;;;38.43;28.93;;;;;;;5.28;100.00;102107.34;4932556;29;20436;-37
2024/01/26 00:43:19;;;;;;;37.83;31.20;;;;;;;5.23;100.00;102091.84;4933203;29;21191;-36
2024/01/26 00:45:47;;;;;;;33.80;29.43;;;;;;;5.18;100.00;102099.31;4933650;28;20463;-36
2024/01/26 00:48:15;;;;;;;45.20;30.43;;;;;;;5.16;100.00;102100.44;4932495;29;20812;-36
2024/01/26 00:50:43;;;;;;;50.53;30.33;;;;;;;5.12;100.00;102102.47;4932544;29;20441;-36
2024/01/26 00:53:12;;;;;;;37.80;29.63;;;;;;;5.10;100.00;102090.34;4936855;29;20444;-36
2024/01/26 00:55:41;;;;;;;31.80;28.73;;;;;;;5.06;100.00;102076.56;4937118;28;20996;-36
2024/01/26 00:58:09;;;;;;;41.10;28.80;;;;;;;5.01;100.00;102079.59;4932628;28;20669;-36
2024/01/26 01:00:37;;;;;;;32.10;28.43;;;;;;;4.98;100.00;102073.72;4932695;29;20468;-36
2024/01/26 01:03:05;;;;;;;32.03;28.40;;;;;;;4.94;100.00;102065.19;4932644;29;20447;-36
2024/01/26 01:05:33;;;;;;;43.37;29.23;;;;;;;4.91;100.00;102048.75;4933480;29;20634;-36
2024/01/26 01:08:01;;;;;;;39.97;30.57;;;;;;;4.90;100.00;102049.72;4930888;28;20845;-36
2024/01/26 01:10:28;;;;;;;40.87;29.90;;;;;;;4.92;100.00;102063.66;4936438;29;20436;-36
2024/01/26 01:12:58;;;;;;;38.47;30.43;;;;;;;4.96;100.00;102052.69;4953704;29;20475;-36
2024/01/26 01:15:25;;;;;;;38.00;29.80;;;;;;;4.98;100.00;102042.84;4938832;29;20437;-35
2024/01/26 01:17:53;;;;;;;33.27;29.80;;;;;;;5.04;100.00;102038.84;4931701;28;20476;-36
2024/01/26 01:20:21;;;;;;;38.07;28.73;;;;;;;5.07;100.00;102041.22;4932382;29;20536;-36
2024/01/26 01:22:49;;;;;;;38.53;28.80;;;;;;;5.11;100.00;102039.97;4932708;29;20468;-36
2024/01/26 01:25:17;;;;;;;43.97;31.33;;;;;;;5.17;100.00;102031.53;4931489;29;20468;-36
2024/01/26 01:27:45;;;;;;;35.47;29.07;;;;;;;5.21;100.00;102032.94;4934683;28;20461;-36
2024/01/26 01:30:14;;;;;;;38.60;31.27;;;;;;;5.21;100.00;102032.94;4930202;29;20524;-35
2024/01/26 01:32:42;;;;;;;38.60;29.30;;;;;;;5.26;100.00;102032.53;4932362;29;20444;-36
2024/01/26 01:35:10;;;;;;;47.63;31.83;;;;;;;5.30;100.00;102026.03;4931743;29;20578;-36
2024/01/26 01:37:38;;;;;;;37.13;32.60;;;;;;;5.33;100.00;102012.53;4931775;28;21063;-36
2024/01/26 01:40:07;;;;;;;42.77;31.27;;;;;;;5.35;100.00;102015.88;4931751;29;20531;-35
2024/01/26 01:42:35;;;;;;;33.10;29.80;;;;;;;5.36;100.00;102013.13;4931491;29;20469;-36
2024/01/26 01:45:13;;;;;;;36.80;32.53;;;;;;;5.39;100.00;102015.50;4931924;29;20850;-36
2024/01/26 01:47:42;;;;;;;38.03;31.50;;;;;;;5.43;100.00;102018.72;4931051;28;20468;-36
2024/01/26 01:50:11;;;;;;;40.50;32.67;;;;;;;5.46;100.00;102021.13;4931740;29;20471;-36
2024/01/26 01:52:42;;;;;;;43.77;32.23;;;;;;;5.45;100.00;102011.50;4932796;29;20449;-36
2024/01/26 01:55:11;;;;;;;42.27;32.30;;;;;;;5.48;100.00;102016.53;4938059;29;20437;-36
2024/01/26 01:57:40;;;;;;;44.20;32.50;;;;;;;5.48;100.00;102006.78;4931271;28;20468;-36
2024/01/26 02:00:15;;;;;;;35.40;30.50;;;;;;;5.51;100.00;102006.50;4933294;29;20546;-36
2024/01/26 02:02:46;;;;;;;40.30;33.53;;;;;;;5.56;100.00;102006.09;4935044;29;20948;-38
2024/01/26 02:05:15;;;;;;;43.93;32.67;;;;;;;5.59;100.00;102003.19;4933167;29;20429;-35
2024/01/26 02:07:47;;;;;;;34.50;31.07;;;;;;;5.60;100.00;101994.28;4929861;28;20884;-35
2024/01/26 02:10:15;;;;;;;43.80;33.07;;;;;;;5.61;100.00;102000.44;4931060;29;20443;-43
2024/01/26 02:12:43;;;;;;;38.77;31.57;;;;;;;5.61;100.00;101989.84;4931962;29;20436;-36
2024/01/26 02:15:11;;;;;;;40.40;32.63;;;;;;;5.63;100.00;101991.38;4931333;29;20528;-39
2024/01/26 02:17:39;;;;;;;35.87;32.00;;;;;;;5.64;100.00;101982.47;4930587;28;20476;-34
2024/01/26 02:20:10;;;;;;;42.80;33.67;;;;;;;5.65;100.00;101997.34;4931683;29;20585;-38
2024/01/26 02:22:38;;;;;;;43.60;32.10;;;;;;;5.64;100.00;101985.13;4931858;29;20527;-36
2024/01/26 02:25:08;;;;;;;51.40;33.93;;;;;;;5.67;100.00;101976.06;4932819;29;20496;-38
2024/01/26 02:27:36;;;;;;;42.40;32.20;;;;;;;5.67;100.00;101963.69;4930923;28;20494;-35
2024/01/26 02:30:05;;;;;;;56.60;34.40;;;;;;;5.68;100.00;101932.72;4932846;29;20443;-41
2024/01/26 02:32:33;;;;;;;53.93;33.70;;;;;;;5.66;100.00;101927.59;4930819;29;20531;-36
2024/01/26 02:35:01;;;;;;;39.73;32.90;;;;;;;5.66;100.00;101934.69;4932314;29;20448;-37
2024/01/26 02:37:30;;;;;;;40.17;32.30;;;;;;;5.66;100.00;101938.19;4932842;28;20877;-41
2024/01/26 02:39:58;;;;;;;48.40;34.50;;;;;;;5.67;100.00;101939.88;4934628;29;20535;-36
2024/01/26 02:42:27;;;;;;;38.13;33.07;;;;;;;5.69;100.00;101934.41;4934112;29;20437;-36
2024/01/26 02:44:55;;;;;;;40.93;33.67;;;;;;;5.70;100.00;101925.53;4929820;29;20572;-38
2024/01/26 02:47:22;;;;;;;54.27;36.80;;;;;;;5.73;100.00;101901.44;4930058;28;20889;-38
2024/01/26 02:49:51;;;;;;;56.63;35.23;;;;;;;5.74;100.00;101900.44;4931030;29;20484;-35
2024/01/26 02:52:20;;;;;;;48.43;35.00;;;;;;;5.76;100.00;101894.06;4932949;29;20468;-37
2024/01/26 02:54:48;;;;;;;43.17;35.20;;;;;;;5.77;100.00;101892.22;4944260;29;20443;-36
2024/01/26 02:57:16;;;;;;;41.97;37.43;;;;;;;5.78;100.00;101881.50;4933469;28;20568;-40
2024/01/26 02:59:45;;;;;;;51.70;36.87;;;;;;;5.81;100.00;101886.53;4929266;29;20600;-36
2024/01/26 03:02:13;;;;;;;57.53;38.57;;;;;;;5.82;100.00;101892.66;4930621;29;20472;-36
2024/01/26 03:04:41;;;;;;;53.60;38.67;;;;;;;5.84;100.00;101890.69;4933240;29;20817;-41
2024/01/26 03:07:08;;;;;;;66.17;41.10;;;;;;;5.86;100.00;101889.63;4945488;28;20860;-37
2024/01/26 03:09:36;;;;;;;49.10;37.80;;;;;;;5.89;100.00;101893.78;4949763;29;20444;-35
2024/01/26 03:12:05;;;;;;;64.40;40.90;;;;;;;5.90;100.00;101883.09;4952487;29;20531;-36
2024/01/26 03:14:32;;;;;;;53.47;41.17;;;;;;;5.95;100.00;101880.00;4934048;29;20448;-36
2024/01/26 03:17:02;;;;;;;62.87;39.93;;;;;;;5.96;100.00;101879.88;4933492;28;20471;-36
2024/01/26 03:19:35;;;;;;;53.83;41.60;;;;;;;5.99;100.00;101862.88;4928342;29;20436;-38
2024/01/26 03:22:02;;;;;;;66.73;44.93;;;;;;;6.01;100.00;101847.69;4930165;29;20447;-36
2024/01/26 03:24:30;;;;;;;61.00;42.10;;;;;;;6.05;100.00;101849.06;4930297;29;20437;-34
2024/01/26 03:26:58;;;;;;;63.23;42.93;;;;;;;6.07;100.00;101847.13;4929990;28;20507;-36
2024/01/26 03:29:26;;;;;;;78.57;45.10;;;;;;;6.08;100.00;101839.03;4930321;29;20448;-36
2024/01/26 03:31:54;;;;;;;76.80;45.93;;;;;;;6.10;100.00;101830.94;4929965;29;20882;-36
2024/01/26 03:34:24;;;;;;;73.77;45.80;;;;;;;6.10;100.00;101829.13;4930438;29;20996;-36
2024/01/26 03:36:52;;;;;;;88.27;47.60;;;;;;;6.13;100.00;101820.91;4930772;28;20890;-38
2024/01/26 03:39:20;;;;;;;78.37;47.10;;;;;;;6.13;100.00;101822.72;4930027;29;20933;-36
2024/01/26 03:41:50;;;;;;;96.77;51.33;;;;;;;6.17;100.00;101821.47;4930120;29;21153;-35
2024/01/26 03:44:18;;;;;;;98.50;51.40;;;;;;;6.20;100.00;101809.75;4930037;29;20805;-35
2024/01/26 03:46:45;;;;;;;102.57;52.80;;;;;;;6.20;100.00;101813.25;4930339;28;20536;-36
2024/01/26 03:49:13;;;;;;;97.87;51.00;;;;;;;6.23;100.00;101812.97;4930287;29;20447;-37
2024/01/26 03:51:43;;;;;;;110.53;52.00;;;;;;;6.24;100.00;101808.50;4930363;29;20432;-37
2024/01/26 03:54:11;;;;;;;137.07;57.87;;;;;;;6.25;100.00;101799.56;4938582;29;20523;-36
2024/01/26 03:56:39;;;;;;;103.30;51.33;;;;;;;6.22;100.00;101800.69;4939654;28;20809;-36
2024/01/26 03:59:07;;;;;;;119.10;54.70;;;;;;;6.25;100.00;101784.50;4933917;29;20447;-43
2024/01/26 04:01:35;;;;;;;105.93;55.13;;;;;;;6.28;100.00;101786.03;4933556;29;20480;-35
2024/01/26 04:04:03;;;;;;;104.97;55.03;;;;;;;6.29;100.00;101785.91;4933313;29;20440;-41
2024/01/26 04:06:39;;;;;;;137.53;56.57;;;;;;;6.32;100.00;101796.22;4928798;28;20889;-36
2024/01/26 04:09:08;;;;;;;112.20;53.70;;;;;;;6.32;100.00;101793.56;4932789;29;20529;-34
2024/01/26 04:11:36;;;;;;;159.93;61.83;;;;;;;6.31;100.00;101783.09;4928000;29;20433;-35
2024/01/26 04:14:04;;;;;;;161.93;60.70;;;;;;;6.33;100.00;101775.84;4938142;29;20845;-35
2024/01/26 04:16:32;;;;;;;139.97;57.57;;;;;;;6.34;100.00;101783.66;4930015;28;20478;-35
2024/01/26 04:19:00;;;;;;;134.73;57.83;;;;;;;6.38;100.00;101793.00;4933651;29;20535;-36
2024/01/26 04:21:28;;;;;;;168.93;61.23;;;;;;;6.38;100.00;101793.00;4932317;29;20472;-38
2024/01/26 04:23:56;;;;;;;154.90;60.77;;;;;;;6.38;100.00;101785.03;4932944;29;20523;-36
2024/01/26 04:26:25;;;;;;;139.23;59.40;;;;;;;6.42;100.00;101788.25;4933587;28;20476;-35
2024/01/26 04:28:53;;;;;;;161.80;59.80;;;;;;;6.43;100.00;101769.53;4940990;29;20783;-38
2024/01/26 04:31:22;;;;;;;145.50;62.20;;;;;;;6.45;100.00;101750.84;4936770;29;20437;-35
2024/01/26 04:33:50;;;;;;;140.67;59.27;;;;;;;6.45;100.00;101741.06;4953061;29;20435;-39
2024/01/26 04:36:18;;;;;;;139.60;58.80;;;;;;;6.45;100.00;101725.16;4950653;28;20543;-36
2024/01/26 04:38:46;;;;;;;138.57;58.00;;;;;;;6.48;100.00;101711.63;4956034;29;20436;-38
2024/01/26 04:41:14;;;;;;;160.20;61.27;;;;;;;6.48;100.00;101702.88;4950160;29;20471;-36
2024/01/26 04:43:43;;;;;;;142.07;58.10;;;;;;;6.51;100.00;101684.03;4941106;29;20963;-35
2024/01/26 04:46:11;;;;;;;142.77;62.20;;;;;;;6.51;100.00;101678.72;4933326;28;20467;-36
2024/01/26 04:48:39;;;;;;;166.37;67.47;;;;;;;6.50;100.00;101667.28;4933737;29;20454;-35
2024/01/26 04:51:07;;;;;;;156.90;64.27;;;;;;;6.50;100.00;101661.16;4933697;29;20439;-38
2024/01/26 04:53:36;;;;;;;136.60;58.67;;;;;;;6.52;100.00;101669.78;4937171;29;20444;-39
2024/01/26 04:56:04;;;;;;;159.07;65.07;;;;;;;6.53;100.00;101666.16;4936011;28;20512;-36
2024/01/26 04:58:32;;;;;;;147.73;60.30;;;;;;;6.51;100.00;101657.53;4931518;29;20877;-38
2024/01/26 05:01:05;;;;;;;152.23;61.20;;;;;;;6.54;100.00;101654.59;4932990;29;20977;-34
2024/01/26 05:03:33;;;;;;;154.23;63.70;;;;;;;6.54;100.00;101644.00;4934378;29;20466;-36
2024/01/26 05:06:01;;;;;;;147.47;60.27;;;;;;;6.52;100.00;101628.22;4934967;28;20546;-36
2024/01/26 05:08:29;;;;;;;190.40;66.70;;;;;;;6.52;100.00;101612.31;4935552;28;20706;-36
2024/01/26 05:10:56;;;;;;;158.43;63.80;;;;;;;6.53;100.00;101605.22;4933383;29;20523;-36
2024/01/26 05:13:24;;;;;;;158.67;64.30;;;;;;;6.52;100.00;101611.47;4931993;29;20921;-36
2024/01/26 05:15:52;;;;;;;185.97;66.03;;;;;;;6.55;100.00;101621.78;4933110;28;21000;-37
2024/01/26 05:18:21;;;;;;;178.87;64.43;;;;;;;6.51;100.00;101612.47;4933775;29;20440;-37
2024/01/26 05:20:49;;;;;;;183.33;66.90;;;;;;;6.55;100.00;101612.03;4931481;29;20472;-37
2024/01/26 05:23:18;;;;;;;184.73;68.63;;;;;;;6.55;100.00;101611.19;4932858;29;20437;-36
2024/01/26 05:25:45;;;;;;;187.87;62.63;;;;;;;6.50;100.00;101611.66;4935816;29;20980;-36
2024/01/26 05:28:13;;;;;;;178.83;65.07;;;;;;;6.53;100.00;101615.81;4935557;29;20523;-37
2024/01/26 05:30:41;;;;;;;178.43;64.43;;;;;;;6.57;100.00;101606.59;4934656;29;20445;-36
2024/01/26 05:33:09;;;;;;;234.80;72.73;;;;;;;6.59;100.00;101594.00;4931634;29;20469;-36
2024/01/26 05:35:39;;;;;;;199.07;65.67;;;;;;;6.58;100.00;101585.22;4931861;29;20504;-36
2024/01/26 05:38:07;;;;;;;170.57;62.77;;;;;;;6.60;100.00;101590.38;4934370;28;20581;-34
2024/01/26 05:40:34;;;;;;;189.07;67.87;;;;;;;6.60;100.00;101591.19;4930070;29;20436;-37
2024/01/26 05:43:02;;;;;;;180.90;69.53;;;;;;;6.64;100.00;101571.38;4932391;29;21163;-36
2024/01/26 05:45:30;;;;;;;195.80;67.23;;;;;;;6.66;100.00;101568.56;4935263;29;20972;-37
2024/01/26 05:47:58;;;;;;;166.93;62.73;;;;;;;6.66;100.00;101572.03;4930955;28;20544;-38
2024/01/26 05:50:26;;;;;;;164.80;61.53;;;;;;;6.66;100.00;101566.75;4931726;29;20441;-36
2024/01/26 05:52:55;;;;;;;176.83;70.07;;;;;;;6.70;100.00;101564.63;4931627;29;20460;-35
2024/01/26 05:55:23;;;;;;;151.53;59.60;;;;;;;6.73;100.00;101568.78;4939869;29;20437;-38
2024/01/26 05:57:50;;;;;;;144.47;60.30;;;;;;;6.74;100.00;101566.00;4931079;28;20983;-36
2024/01/26 06:00:18;;;;;;;160.60;61.37;;;;;;;6.78;100.00;101538.19;4935069;29;20988;-39
2024/01/26 06:02:47;;;;;;;146.87;59.70;;;;;;;6.80;100.00;101540.69;4930726;29;20476;-36
2024/01/26 06:05:16;;;;;;;162.73;63.50;;;;;;;6.82;100.00;101530.75;4931299;29;20460;-40
2024/01/26 06:07:43;;;;;;;188.47;66.30;;;;;;;6.87;100.00;101523.22;4934429;28;20897;-36
2024/01/26 06:10:13;;;;;;;178.90;64.17;;;;;;;6.89;100.00;101519.41;4931193;29;20468;-38
2024/01/26 06:12:41;;;;;;;180.73;63.23;;;;;;;6.91;100.00;101528.03;4931489;29;20445;-36
2024/01/26 06:15:10;;;;;;;175.13;59.30;;;;;;;6.92;100.00;101508.50;4935128;29;20941;-38
2024/01/26 06:17:38;;;;;;;160.70;66.00;;;;;;;6.96;100.00;101499.22;4928980;28;20480;-36
2024/01/26 06:20:07;;;;;;;154.97;59.03;;;;;;;6.97;100.00;101470.91;4931664;29;20441;-39
2024/01/26 06:22:35;;;;;;;148.67;61.43;;;;;;;7.00;100.00;101460.81;4930979;29;20472;-38
2024/01/26 06:25:04;;;;;;;159.57;62.77;;;;;;;7.02;100.00;101450.88;4931443;29;20433;-36
2024/01/26 06:27:33;;;;;;;151.30;60.00;;;;;;;7.02;100.00;101442.09;4932333;28;20464;-38
2024/01/26 06:30:01;;;;;;;160.10;62.20;;;;;;;7.05;100.00;101447.06;4934860;29;20441;-38
2024/01/26 06:32:29;;;;;;;131.10;53.70;;;;;;;7.08;100.00;101455.56;4934148;29;20488;-36
2024/01/26 06:34:57;;;;;;;139.53;58.87;;;;;;;7.10;100.00;101448.28;4930875;29;20528;-35
2024/01/26 06:37:26;;;;;;;164.37;60.00;;;;;;;7.13;100.00;101434.72;4934045;28;20913;-37
2024/01/26 06:39:55;;;;;;;154.93;59.80;;;;;;;7.16;100.00;101431.75;4941948;29;20456;-36
2024/01/26 06:42:25;;;;;;;140.17;60.03;;;;;;;7.18;100.00;101431.56;4942802;28;20564;-36
2024/01/26 06:44:55;;;;;;;151.23;57.57;;;;;;;7.20;100.00;101440.19;4947308;29;20436;-36
2024/01/26 06:47:23;;;;;;;138.97;58.70;;;;;;;7.23;100.00;101431.94;4946808;28;20522;-38
2024/01/26 06:49:51;;;;;;;128.43;55.43;;;;;;;7.22;100.00;101420.50;4945443;29;20436;-36
2024/01/26 06:52:19;;;;;;;140.00;57.77;;;;;;;7.28;100.00;101423.50;4937179;29;20967;-39
2024/01/26 06:54:47;;;;;;;160.67;59.50;;;;;;;7.30;100.00;101426.81;4947758;29;21204;-38
2024/01/26 06:57:14;;;;;;;150.53;61.27;;;;;;;7.31;100.00;101421.38;4948465;28;20555;-35
2024/01/26 06:59:42;;;;;;;128.07;58.43;;;;;;;7.33;100.00;101410.59;4947850;29;20467;-36
2024/01/26 07:02:12;;;;;;;146.00;60.47;;;;;;;7.34;100.00;101391.88;4948807;28;21044;-35
2024/01/26 07:04:40;;;;;;;127.37;57.87;;;;;;;7.35;100.00;101387.41;4948901;28;20563;-36
2024/01/26 07:07:07;;;;;;;121.53;56.07;;;;;;;7.39;100.00;101375.47;4940111;28;21067;-36
2024/01/26 07:09:35;;;;;;;118.80;54.80;;;;;;;7.41;100.00;101361.03;4930793;29;20437;-37
2024/01/26 07:12:04;;;;;;;123.70;55.03;;;;;;;7.41;100.00;101344.28;4931021;29;20843;-40
2024/01/26 07:14:31;;;;;;;116.27;55.20;;;;;;;7.43;100.00;101337.00;4930399;29;20452;-35
2024/01/26 07:16:59;;;;;;;116.30;54.87;;;;;;;7.44;100.00;101317.41;4930838;28;20464;-35
2024/01/26 07:19:28;;;;;;;137.80;56.87;;;;;;;7.45;100.00;101319.94;4931837;29;20983;-34
2024/01/26 07:21:56;;;;;;;117.20;57.07;;;;;;;7.49;100.00;101309.81;4931111;29;21122;-36
2024/01/26 07:24:24;;;;;;;115.70;54.20;;;;;;;7.50;100.00;101312.31;4946134;29;20587;-36
2024/01/26 07:26:53;;;;;;;113.13;53.97;;;;;;;7.52;100.00;101299.72;4943998;28;20467;-38
2024/01/26 07:29:21;;;;;;;133.03;57.67;;;;;;;7.56;100.00;101281.63;4935109;29;20429;-37
2024/01/26 07:31:50;;;;;;;111.47;53.53;;;;;;;7.60;100.00;101280.31;4937176;29;20475;-34
2024/01/26 07:34:18;;;;;;;124.43;56.77;;;;;;;7.63;100.00;101274.66;4945510;29;20438;-38
2024/01/26 07:36:48;;;;;;;122.83;54.80;;;;;;;7.67;100.00;101263.56;4942922;28;20528;-36
2024/01/26 07:39:15;;;;;;;105.80;53.20;;;;;;;7.66;100.00;101261.06;4948100;29;20499;-36
2024/01/26 07:41:43;;;;;;;118.33;57.87;;;;;;;7.69;100.00;101255.44;4944663;29;20448;-34
2024/01/26 07:44:11;;;;;;;125.57;57.33;;;;;;;7.70;100.00;101249.97;4949454;28;20428;-36
2024/01/26 07:46:41;;;;;;;120.20;56.17;;;;;;;7.70;100.00;101254.44;4936194;28;20547;-41
2024/01/26 07:49:09;;;;;;;110.00;54.27;;;;;;;7.71;100.00;101253.44;4924957;28;21039;-36
2024/01/26 07:51:37;;;;;;;105.13;51.97;;;;;;;7.72;100.00;101244.47;4949122;29;20464;-34
2024/01/26 07:54:07;;;;;;;105.33;55.10;;;;;;;7.75;100.00;101247.63;4949933;28;20447;-35
2024/01/26 07:56:35;;;;;;;104.20;53.17;;;;;;;7.77;100.00;101224.41;4948997;28;20563;-34
2024/01/26 07:59:03;;;;;;;84.90;49.60;;;;;;;7.78;100.00;101211.97;4946285;28;20466;-39
2024/01/26 08:01:31;;;;;;;91.20;49.40;;;;;;;7.82;100.00;101217.78;4950385;28;20444;-41
2024/01/26 08:04:02;;;;;;;86.90;49.80;;;;;;;7.83;100.00;101199.00;4947065;29;20564;-36
2024/01/26 08:06:30;;;;;;;90.33;47.87;;;;;;;7.87;100.00;101191.53;4942478;29;20496;-36
2024/01/26 08:08:58;;;;;;;65.20;44.50;;;;;;;7.88;100.00;101191.38;4932872;28;20476;-35
2024/01/26 08:11:27;;;;;;;60.97;42.87;;;;;;;7.89;100.00;101194.84;4933810;29;20975;-34
2024/01/26 08:13:55;;;;;;;63.53;43.07;;;;;;;7.92;100.00;101183.88;4953098;29;20467;-38
2024/01/26 08:16:23;;;;;;;56.70;38.37;;;;;;;7.93;100.00;101188.22;4953189;28;20459;-39
2024/01/26 08:18:51;;;;;;;57.37;41.43;;;;;;;7.94;100.00;101179.25;4950327;28;20444;-40
2024/01/26 08:21:19;;;;;;;53.50;38.23;;;;;;;7.97;100.00;101181.56;4940569;29;20436;-39
2024/01/26 08:23:47;;;;;;;54.80;39.13;;;;;;;7.99;100.00;101177.75;4953216;29;20696;-38
2024/01/26 08:26:16;;;;;;;56.03;37.20;;;;;;;8.01;100.00;101178.41;4945999;29;20459;-40
2024/01/26 08:28:45;;;;;;;50.03;36.73;;;;;;;8.03;100.00;101160.47;4953087;28;20491;-36
2024/01/26 08:31:13;;;;;;;46.43;34.90;;;;;;;8.04;100.00;101145.34;4952878;29;20454;-38
2024/01/26 08:33:41;;;;;;;39.20;33.97;;;;;;;8.06;100.00;101133.59;4950390;29;20441;-38
2024/01/26 08:36:10;;;;;;;40.90;35.03;;;;;;;8.10;100.00;101128.72;4947839;29;20550;-36
2024/01/26 08:38:38;;;;;;;37.80;33.80;;;;;;;8.12;100.00;101119.59;4935006;28;20437;-37
2024/01/26 08:41:07;;;;;;;37.90;33.27;;;;;;;8.13;100.00;101110.63;4947527;29;20435;-36
2024/01/26 08:43:35;;;;;;;35.47;32.17;;;;;;;8.16;100.00;101107.63;4952461;29;20490;-35
2024/01/26 08:46:04;;;;;;;35.80;32.00;;;;;;;8.23;100.00;101107.78;4953089;29;20962;-36
2024/01/26 08:48:32;;;;;;;33.77;30.77;;;;;;;8.22;100.00;101093.66;4953761;29;20471;-38
2024/01/26 08:51:02;;;;;;;36.50;32.90;;;;;;;8.23;100.00;101086.53;4952684;29;20479;-36
2024/01/26 08:53:30;;;;;;;36.70;32.83;;;;;;;8.25;100.00;101093.31;4944027;29;20432;-38
2024/01/26 08:55:57;;;;;;;34.97;31.87;;;;;;;8.27;100.00;101082.53;4952200;28;20479;-40
2024/01/26 08:58:26;;;;;;;35.23;31.77;;;;;;;8.31;100.00;101070.56;4945703;29;20464;-38
2024/01/26 09:00:54;;;;;;;33.40;30.20;;;;;;;8.32;100.00;101059.78;4943521;29;20876;-40
2024/01/26 09:03:23;;;;;;;34.10;30.90;;;;;;;8.34;100.00;101047.13;4951331;29;21006;-36
2024/01/26 09:05:51;;;;;;;32.77;29.57;;;;;;;8.36;100.00;101038.16;4947642;28;20451;-37
2024/01/26 09:08:19;;;;;;;34.03;30.50;;;;;;;8.37;100.00;101035.31;4932751;29;20874;-39
2024/01/26 09:10:46;;;;;;;30.87;27.67;;;;;;;8.39;100.00;101021.88;4949862;28;21217;-38
2024/01/26 09:13:14;;;;;;;30.10;27.23;;;;;;;8.42;100.00;101022.38;4943777;29;20468;-37
2024/01/26 09:15:42;;;;;;;32.17;28.93;;;;;;;8.44;100.00;101017.69;4951485;29;20547;-39
2024/01/26 09:18:10;;;;;;;30.20;27.30;;;;;;;8.47;100.00;101005.88;4951521;29;20805;-38
2024/01/26 09:20:40;;;;;;;29.30;26.80;;;;;;;8.49;100.00;101003.84;4941575;28;20468;-35
2024/01/26 09:23:08;;;;;;;29.10;26.47;;;;;;;8.55;100.00;100992.53;4947236;29;20843;-36
2024/01/26 09:25:35;;;;;;;30.53;27.90;;;;;;;8.56;100.00;100988.88;4951107;29;20436;-37
2024/01/26 09:28:03;;;;;;;27.83;25.50;;;;;;;8.61;100.00;100999.78;4946401;29;20563;-39
2024/01/26 09:30:31;;;;;;;29.03;26.20;;;;;;;8.62;100.00;100986.34;4948522;28;20499;-38
2024/01/26 09:32:59;;;;;;;29.13;26.73;;;;;;;8.69;100.00;100986.44;4951366;29;20471;-38
2024/01/26 09:35:28;;;;;;;26.57;24.50;;;;;;;8.72;100.00;100973.59;4943681;28;20448;-37
2024/01/26 09:37:57;;;;;;;26.40;24.33;;;;;;;8.75;100.00;100978.56;4939999;29;20448;-36
2024/01/26 09:40:26;;;;;;;26.53;24.13;;;;;;;8.78;100.00;100990.69;4932878;28;21042;-35
2024/01/26 09:42:54;;;;;;;26.40;23.90;;;;;;;8.80;100.00;100988.69;4932626;29;20433;-37
2024/01/26 09:45:23;;;;;;;26.43;24.33;;;;;;;8.80;100.00;100996.66;4934741;29;20473;-38
2024/01/26 09:47:53;;;;;;;24.43;22.63;;;;;;;8.87;100.00;100977.13;4941191;29;20451;-37
2024/01/26 09:50:22;;;;;;;24.60;22.80;;;;;;;8.92;100.00;100971.28;4951319;28;20470;-36
2024/01/26 09:52:50;;;;;;;23.93;22.27;;;;;;;8.98;100.00;100985.69;4941475;29;20432;-37
2024/01/26 09:55:20;;;;;;;23.03;21.63;;;;;;;9.04;100.00;100977.81;4940172;29;20445;-36
2024/01/26 09:57:48;;;;;;;22.00;20.60;;;;;;;9.13;100.00;100984.72;4933026;29;20449;-38
2024/01/26 10:00:17;;;;;;;23.17;21.57;;;;;;;9.17;100.00;100975.34;4930619;28;20877;-39
2024/01/26 10:02:46;;;;;;;23.07;21.47;;;;;;;9.24;100.00;100997.56;4934785;29;20477;-36
2024/01/26 10:05:17;;;;;;;21.13;19.80;;;;;;;9.29;100.00;100978.38;4951172;29;20555;-36
2024/01/26 10:07:45;;;;;;;20.53;19.23;;;;;;;9.33;100.00;100975.19;4951425;29;20436;-38
2024/01/26 10:10:14;;;;;;;20.57;19.50;;;;;;;9.39;100.00;100985.13;4951171;28;20488;-35
2024/01/26 10:12:44;;;;;;;22.40;21.03;;;;;;;9.45;100.00;100975.56;4943379;29;20669;-38
2024/01/26 10:15:13;;;;;;;23.90;22.30;;;;;;;9.47;100.00;100986.84;4937801;29;20433;-38
2024/01/26 10:17:44;;;;;;;23.40;22.00;;;;;;;9.50;100.00;100977.69;4949745;28;20963;-38
2024/01/26 10:20:14;;;;;;;24.60;23.13;;;;;;;9.54;100.00;100979.78;4936124;28;20622;-36
2024/01/26 10:22:44;;;;;;;26.77;24.57;;;;;;;9.58;100.00;100978.41;4932510;29;21024;-39
2024/01/26 10:25:13;;;;;;;25.33;23.70;;;;;;;9.62;100.00;100981.50;4950518;28;20483;-36
2024/01/26 10:27:43;;;;;;;24.67;23.07;;;;;;;9.68;100.00;100973.63;4951229;29;20456;-36
2024/01/26 10:30:13;;;;;;;25.07;23.57;;;;;;;9.70;100.00;100962.81;4945049;28;21069;-36
2024/01/26 10:32:44;;;;;;;24.77;23.20;;;;;;;9.72;100.00;100950.94;4948930;29;20444;-38
2024/01/26 10:35:15;;;;;;;24.57;23.00;;;;;;;9.74;100.00;100961.41;4949112;28;20520;-36
2024/01/26 10:37:46;;;;;;;26.50;24.57;;;;;;;9.72;100.00;100964.25;4942695;29;20860;-36
2024/01/26 10:40:17;;;;;;;26.63;24.83;;;;;;;9.66;100.00;100961.50;4945186;28;20460;-35
2024/01/26 10:42:47;;;;;;;26.67;25.17;;;;;;;9.62;100.00;100965.53;4949114;29;20442;-35
2024/01/26 10:45:17;;;;;;;27.47;25.70;;;;;;;9.53;100.00;100964.81;4953394;29;20471;-35
2024/01/26 10:47:47;;;;;;;26.40;25.00;;;;;;;9.53;100.00;100964.00;4950687;28;20451;-34
2024/01/26 10:50:15;;;;;;;28.27;26.23;;;;;;;9.44;100.00;100976.56;4937728;28;20468;-36
2024/01/26 10:52:45;;;;;;;29.87;27.57;;;;;;;9.39;100.00;100969.16;4950208;29;20458;-37
2024/01/26 10:55:14;;;;;;;30.10;28.20;;;;;;;9.38;100.00;100962.16;4939688;29;20429;-35
2024/01/26 10:57:42;;;;;;;30.90;28.30;;;;;;;9.37;100.00;100957.88;4931579;29;20469;-35
2024/01/26 11:00:14;;;;;;;33.07;30.10;;;;;;;9.32;100.00;100962.06;4944008;28;20539;-34
2024/01/26 11:02:43;;;;;;;31.40;29.00;;;;;;;9.25;100.00;100961.97;4943105;29;20521;-34
2024/01/26 11:05:13;;;;;;;33.60;30.27;;;;;;;9.18;100.00;100962.88;4951047;28;20483;-37
2024/01/26 11:07:42;;;;;;;35.03;31.93;;;;;;;9.10;100.00;100952.31;4941928;29;20507;-35
2024/01/26 11:10:20;;;;;;;34.33;31.13;;;;;;;9.05;100.00;100955.53;4946901;28;20472;-35
2024/01/26 11:12:59;;;;;;;38.87;33.00;;;;;;;9.04;100.00;100943.25;4951737;29;20432;-35